Time;durP1;ratioP1;P1;durP2;ratioP2;P2;SDS_P1;SDS_P2;PMS_P1;PMS_P2;Temp;Humidity;BMP_temperature;BMP_pressure;BME280_temperature;BME280_humidity;BME280_pressure;Samples;Min_cycle;Max_cycle;Signal;HPM_P1;HPM_P2
2022/10/19 00:01:14;;;;;;;;;7.00;7.00;;;;;;;;114105;1212;25928;-56
2022/10/19 00:03:42;;;;;;;;;5.00;5.00;;;;;;;;114058;1207;25379;-56
2022/10/19 00:06:11;;;;;;;;;7.00;7.00;;;;;;;;114091;1211;25537;-55
2022/10/19 00:08:38;;;;;;;;;8.33;5.33;;;;;;;;114092;1214;25669;-56
2022/10/19 00:11:05;;;;;;;;;;;;;;;;;;114034;1206;24885;-56
2022/10/19 00:13:32;;;;;;;;;;;;;;;;;;114071;1216;24708;-57
2022/10/19 00:16:00;;;;;;;;;8.00;6.50;;;;;;;;114146;1218;25210;-56
2022/10/19 00:18:27;;;;;;;;;8.00;7.00;;;;;;;;114139;1212;25413;-56
2022/10/19 00:21:05;;;;;;;;;5.50;5.50;;;;;;;;114001;1206;25221;-56
2022/10/19 00:23:32;;;;;;;;;11.00;6.00;;;;;;;;114082;1218;25044;-55
2022/10/19 00:26:00;;;;;;;;;6.00;6.00;;;;;;;;114136;1218;25370;-56
2022/10/19 00:28:27;;;;;;;;;7.00;7.00;;;;;;;;114123;1212;25111;-56
2022/10/19 00:30:54;;;;;;;;;7.00;7.00;;;;;;;;114131;1216;25551;-56
2022/10/19 00:33:22;;;;;;;;;9.00;9.00;;;;;;;;114006;1212;24707;-56
2022/10/19 00:35:49;;;;;;;;;;;;;;;;;;114139;1218;24876;-56
2022/10/19 00:38:18;;;;;;;;;7.00;6.00;;;;;;;;114120;1210;24747;-55
2022/10/19 00:40:45;;;;;;;;;;;;;;;;;;114149;1213;25291;-56
2022/10/19 00:43:14;;;;;;;;;6.50;6.50;;;;;;;;114130;1216;25485;-55
2022/10/19 00:45:41;;;;;;;;;5.00;4.00;;;;;;;;114122;1206;24996;-55
2022/10/19 00:48:08;;;;;;;;;;;;;;;;;;114090;1206;25195;-56
2022/10/19 00:50:36;;;;;;;;;6.50;6.50;;;;;;;;114138;1216;25121;-56
2022/10/19 00:53:03;;;;;;;;;6.00;5.00;;;;;;;;114064;1214;25484;-56
2022/10/19 00:55:30;;;;;;;;;8.00;7.00;;;;;;;;114098;1211;25275;-55
2022/10/19 00:57:57;;;;;;;;;9.00;7.00;;;;;;;;114095;1209;25149;-56
2022/10/19 01:00:25;;;;;;;;;8.00;6.00;;;;;;;;114044;1207;24993;-56
2022/10/19 01:02:52;;;;;;;;;5.50;5.50;;;;;;;;114057;1213;24829;-56
2022/10/19 01:05:19;;;;;;;;;7.00;6.00;;;;;;;;114091;1213;25789;-55
2022/10/19 01:07:46;;;;;;;;;9.00;6.00;;;;;;;;114082;1218;24815;-55
2022/10/19 01:10:13;;;;;;;;;8.00;7.00;;;;;;;;114049;1216;24711;-55
2022/10/19 01:13:06;;;;;;;;;7.00;7.00;;;;;;;;114056;1217;25465;-56
2022/10/19 01:15:56;;;;;;;;;6.00;6.00;;;;;;;;114098;1214;26324;-55
2022/10/19 01:18:31;;;;;;;;;8.00;5.50;;;;;;;;114153;1208;25474;-56
2022/10/19 01:21:28;;;;;;;;;9.00;7.00;;;;;;;;114132;1210;25715;-56
2022/10/19 01:24:10;;;;;;;;;9.00;8.00;;;;;;;;114010;1216;24804;-56
2022/10/19 01:26:53;;;;;;;;;6.00;6.00;;;;;;;;114112;1216;25017;-56
2022/10/19 01:29:57;;;;;;;;;10.50;8.00;;;;;;;;114144;1209;25066;-56
2022/10/19 01:32:27;;;;;;;;;8.00;7.00;;;;;;;;114097;1210;25052;-56
2022/10/19 01:35:26;;;;;;;;;6.00;6.00;;;;;;;;114137;1211;24751;-56
2022/10/19 01:38:17;;;;;;;;;7.50;5.50;;;;;;;;114007;1213;25020;-56
2022/10/19 01:40:54;;;;;;;;;8.00;7.00;;;;;;;;114125;1210;25184;-56
2022/10/19 01:43:34;;;;;;;;;7.00;7.00;;;;;;;;114108;1210;25553;-56
2022/10/19 01:46:40;;;;;;;;;7.50;5.50;;;;;;;;114085;1210;26039;-56
2022/10/19 01:49:40;;;;;;;;;9.50;7.50;;;;;;;;114158;1215;25006;-56
2022/10/19 01:52:10;;;;;;;;;4.00;4.00;;;;;;;;114105;1218;25389;-56
2022/10/19 01:54:42;;;;;;;;;;;;;;;;;;114145;1213;25047;-56
2022/10/19 01:57:11;;;;;;;;;7.00;6.00;;;;;;;;114120;1218;25498;-55
2022/10/19 01:59:38;;;;;;;;;;;;;;;;;;114120;1216;25489;-56
2022/10/19 02:02:08;;;;;;;;;7.00;7.00;;;;;;;;114074;1216;24876;-55
2022/10/19 02:04:36;;;;;;;;;9.00;5.00;;;;;;;;114052;1216;25097;-55
2022/10/19 02:07:06;;;;;;;;;7.00;6.50;;;;;;;;114128;1210;25644;-55
2022/10/19 02:09:33;;;;;;;;;;;;;;;;;;114121;1217;25208;-55
2022/10/19 02:12:03;;;;;;;;;8.00;7.00;;;;;;;;114103;1217;24805;-55
2022/10/19 02:14:35;;;;;;;;;6.00;4.00;;;;;;;;114182;1212;24870;-56
2022/10/19 02:17:04;;;;;;;;;;;;;;;;;;114125;1207;25372;-56
2022/10/19 02:19:31;;;;;;;;;9.00;9.00;;;;;;;;114151;1213;25063;-55
2022/10/19 02:21:59;;;;;;;;;5.00;5.00;;;;;;;;114136;1206;25011;-55
2022/10/19 02:24:26;;;;;;;;;6.00;6.00;;;;;;;;114083;1218;25439;-54
2022/10/19 02:26:53;;;;;;;;;8.00;7.00;;;;;;;;114162;1210;24777;-54
2022/10/19 02:29:20;;;;;;;;;;;;;;;;;;114085;1215;25393;-56
2022/10/19 02:31:47;;;;;;;;;8.00;7.00;;;;;;;;114150;1216;25415;-57
2022/10/19 02:34:14;;;;;;;;;10.00;10.00;;;;;;;;114073;1216;25597;-56
2022/10/19 02:36:41;;;;;;;;;8.00;8.00;;;;;;;;114101;1210;26504;-56
2022/10/19 02:39:09;;;;;;;;;10.00;9.00;;;;;;;;114139;1210;25352;-56
2022/10/19 02:41:57;;;;;;;;;7.00;7.00;;;;;;;;114073;1216;24933;-56
2022/10/19 02:44:23;;;;;;;;;;;;;;;;;;114138;1210;25773;-56
2022/10/19 02:46:57;;;;;;;;;7.50;7.50;;;;;;;;114113;1213;25487;-56
2022/10/19 02:49:24;;;;;;;;;7.00;7.00;;;;;;;;114130;1218;24976;-56
2022/10/19 02:51:57;;;;;;;;;;;;;;;;;;114098;1212;24842;-56
2022/10/19 02:54:24;;;;;;;;;9.00;8.00;;;;;;;;114127;1209;25372;-56
2022/10/19 02:56:51;;;;;;;;;11.00;9.00;;;;;;;;114072;1216;25072;-56
2022/10/19 02:59:19;;;;;;;;;8.00;6.00;;;;;;;;114129;1207;25527;-55
2022/10/19 03:01:45;;;;;;;;;7.00;7.00;;;;;;;;114099;1216;25514;-56
2022/10/19 03:04:12;;;;;;;;;;;;;;;;;;113995;1218;25161;-56
2022/10/19 03:06:39;;;;;;;;;7.00;5.00;;;;;;;;114089;1214;24745;-56
2022/10/19 03:09:06;;;;;;;;;;;;;;;;;;114048;1205;25462;-56
2022/10/19 03:11:33;;;;;;;;;10.00;8.00;;;;;;;;114071;1216;25220;-56
2022/10/19 03:14:00;;;;;;;;;;;;;;;;;;114083;1210;25093;-56
2022/10/19 03:16:27;;;;;;;;;10.00;9.50;;;;;;;;114050;1217;25847;-56
2022/10/19 03:18:54;;;;;;;;;11.00;8.00;;;;;;;;114098;1209;24940;-56
2022/10/19 03:21:21;;;;;;;;;10.00;9.00;;;;;;;;114094;1218;25007;-56
2022/10/19 03:23:48;;;;;;;;;11.50;11.00;;;;;;;;114010;1206;25610;-56
2022/10/19 03:26:16;;;;;;;;;9.50;7.50;;;;;;;;114120;1209;25264;-56
2022/10/19 03:28:43;;;;;;;;;10.00;10.00;;;;;;;;114100;1212;25611;-56
2022/10/19 03:31:11;;;;;;;;;10.00;9.00;;;;;;;;114107;1216;25330;-57
2022/10/19 03:33:37;;;;;;;;;;;;;;;;;;114081;1218;24959;-56
2022/10/19 03:36:24;;;;;;;;;;;;;;;;;;114101;1216;25409;-56
2022/10/19 03:38:52;;;;;;;;;10.00;9.50;;;;;;;;114092;1209;24706;-56
2022/10/19 03:41:21;;;;;;;;;12.00;8.00;;;;;;;;114129;1216;25350;-56
2022/10/19 03:43:48;;;;;;;;;11.50;9.00;;;;;;;;114130;1216;25263;-56
2022/10/19 03:46:15;;;;;;;;;10.00;10.00;;;;;;;;114083;1218;24836;-57
2022/10/19 03:48:42;;;;;;;;;;;;;;;;;;114087;1214;24864;-57
2022/10/19 03:51:15;;;;;;;;;11.00;10.00;;;;;;;;114094;1215;25026;-55
2022/10/19 03:53:43;;;;;;;;;8.00;8.00;;;;;;;;114149;1216;25203;-55
2022/10/19 03:56:11;;;;;;;;;8.50;8.50;;;;;;;;114118;1216;24820;-55
2022/10/19 03:58:39;;;;;;;;;11.00;10.00;;;;;;;;114132;1209;25539;-56
2022/10/19 04:01:12;;;;;;;;;10.00;9.00;;;;;;;;114130;1213;25297;-55
2022/10/19 04:03:39;;;;;;;;;;;;;;;;;;114070;1215;25665;-56
2022/10/19 04:06:15;;;;;;;;;17.00;10.00;;;;;;;;114127;1214;25386;-56
2022/10/19 04:08:48;;;;;;;;;13.00;10.00;;;;;;;;114111;1213;25564;-55
2022/10/19 04:11:17;;;;;;;;;11.00;8.00;;;;;;;;114134;1216;24854;-55
2022/10/19 04:13:50;;;;;;;;;9.00;9.00;;;;;;;;114129;1211;25041;-56
2022/10/19 04:16:18;;;;;;;;;10.00;9.00;;;;;;;;114112;1213;25632;-55
2022/10/19 04:18:45;;;;;;;;;10.00;10.00;;;;;;;;114160;1218;25313;-55
2022/10/19 04:21:24;;;;;;;;;;;;;;;;;;114076;1212;25674;-56
2022/10/19 04:23:52;;;;;;;;;;;;;;;;;;114057;1209;25074;-55
2022/10/19 04:26:19;;;;;;;;;10.00;9.00;;;;;;;;114120;1209;24859;-55
2022/10/19 04:28:46;;;;;;;;;12.00;12.00;;;;;;;;114094;1209;25312;-56
2022/10/19 04:31:14;;;;;;;;;13.00;12.00;;;;;;;;114092;1216;25221;-56
2022/10/19 04:33:41;;;;;;;;;12.00;10.00;;;;;;;;114142;1213;25261;-55
2022/10/19 04:36:10;;;;;;;;;11.00;10.00;;;;;;;;114155;1206;25375;-55
2022/10/19 04:38:37;;;;;;;;;10.00;8.00;;;;;;;;114159;1210;25493;-55
2022/10/19 04:41:12;;;;;;;;;8.50;8.50;;;;;;;;114108;1209;25410;-55
2022/10/19 04:43:39;;;;;;;;;12.00;12.00;;;;;;;;114140;1217;25441;-56
2022/10/19 04:46:12;;;;;;;;;13.00;11.00;;;;;;;;114147;1212;24925;-56
2022/10/19 04:48:39;;;;;;;;;13.00;11.00;;;;;;;;114146;1217;25658;-56
2022/10/19 04:51:06;;;;;;;;;;;;;;;;;;114139;1218;25074;-56
2022/10/19 04:53:33;;;;;;;;;9.50;6.00;;;;;;;;114120;1213;24717;-56
2022/10/19 04:56:03;;;;;;;;;;;;;;;;;;114068;1206;25225;-55
2022/10/19 04:58:30;;;;;;;;;12.00;10.00;;;;;;;;114175;1209;24827;-56
2022/10/19 05:00:57;;;;;;;;;11.00;10.00;;;;;;;;114085;1209;24947;-56
2022/10/19 05:03:24;;;;;;;;;;;;;;;;;;114129;1214;25051;-57
2022/10/19 05:05:51;;;;;;;;;10.00;10.00;;;;;;;;114155;1217;25279;-55
2022/10/19 05:08:18;;;;;;;;;16.00;12.00;;;;;;;;114119;1218;24873;-55
2022/10/19 05:10:45;;;;;;;;;12.50;11.00;;;;;;;;114094;1210;24850;-56
2022/10/19 05:13:14;;;;;;;;;13.50;10.50;;;;;;;;114173;1213;24888;-56
2022/10/19 05:15:41;;;;;;;;;9.00;9.00;;;;;;;;114158;1210;25659;-56
2022/10/19 05:18:08;;;;;;;;;9.50;9.50;;;;;;;;114141;1218;25016;-56
2022/10/19 05:20:35;;;;;;;;;14.50;11.50;;;;;;;;114123;1217;25370;-56
2022/10/19 05:23:02;;;;;;;;;12.00;12.00;;;;;;;;114156;1205;25394;-56
2022/10/19 05:25:33;;;;;;;;;10.00;10.00;;;;;;;;114142;1212;24987;-55
2022/10/19 05:28:00;;;;;;;;;11.50;11.00;;;;;;;;114142;1210;25537;-56
2022/10/19 05:30:27;;;;;;;;;;;;;;;;;;114151;1210;25161;-56
2022/10/19 05:32:54;;;;;;;;;11.00;11.00;;;;;;;;114135;1217;25653;-56
2022/10/19 05:35:21;;;;;;;;;15.00;12.00;;;;;;;;114083;1211;25405;-57
2022/10/19 05:37:54;;;;;;;;;13.00;10.00;;;;;;;;114129;1209;25331;-56
2022/10/19 05:40:21;;;;;;;;;15.00;13.00;;;;;;;;114117;1210;24960;-56
2022/10/19 05:42:48;;;;;;;;;12.00;11.00;;;;;;;;114076;1206;24929;-56
2022/10/19 05:45:14;;;;;;;;;;;;;;;;;;114093;1210;25540;-56
2022/10/19 05:47:41;;;;;;;;;10.00;10.00;;;;;;;;114154;1213;25499;-56
2022/10/19 05:50:08;;;;;;;;;17.00;14.00;;;;;;;;114060;1216;25290;-56
2022/10/19 05:52:35;;;;;;;;;13.00;13.00;;;;;;;;114037;1214;25585;-56
2022/10/19 05:55:03;;;;;;;;;11.50;10.00;;;;;;;;114084;1213;24937;-57
2022/10/19 05:57:31;;;;;;;;;10.00;10.00;;;;;;;;114098;1212;25562;-57
2022/10/19 05:59:58;;;;;;;;;13.00;11.50;;;;;;;;114099;1210;25364;-57
2022/10/19 06:02:25;;;;;;;;;15.50;13.00;;;;;;;;114056;1210;25404;-55
2022/10/19 06:04:52;;;;;;;;;;;;;;;;;;114119;1213;25425;-56
2022/10/19 06:07:19;;;;;;;;;11.00;11.00;;;;;;;;114073;1217;25499;-56
2022/10/19 06:09:46;;;;;;;;;14.00;14.00;;;;;;;;114097;1204;25613;-55
2022/10/19 06:12:13;;;;;;;;;16.50;14.50;;;;;;;;114109;1216;25162;-56
2022/10/19 06:14:42;;;;;;;;;15.50;12.00;;;;;;;;114124;1204;25089;-55
2022/10/19 06:17:10;;;;;;;;;14.00;10.00;;;;;;;;114125;1213;25707;-56
2022/10/19 06:19:37;;;;;;;;;16.50;12.50;;;;;;;;114138;1207;25581;-55
2022/10/19 06:22:03;;;;;;;;;13.00;12.00;;;;;;;;114063;1216;24812;-55
2022/10/19 06:24:30;;;;;;;;;11.00;11.00;;;;;;;;114102;1216;24828;-55
2022/10/19 06:26:57;;;;;;;;;14.50;11.50;;;;;;;;114133;1218;25642;-56
2022/10/19 06:29:24;;;;;;;;;;;;;;;;;;114101;1217;25008;-55
2022/10/19 06:31:53;;;;;;;;;18.50;15.50;;;;;;;;114103;1216;25304;-55
2022/10/19 06:34:19;;;;;;;;;23.00;19.50;;;;;;;;114142;1210;24853;-56
2022/10/19 06:36:46;;;;;;;;;17.50;14.50;;;;;;;;114098;1209;24785;-56
2022/10/19 06:39:13;;;;;;;;;23.00;20.00;;;;;;;;114093;1213;24745;-56
2022/10/19 06:41:40;;;;;;;;;24.00;21.00;;;;;;;;114114;1213;25120;-57
2022/10/19 06:44:07;;;;;;;;;23.00;21.00;;;;;;;;114146;1211;25023;-56
2022/10/19 06:46:34;;;;;;;;;29.00;23.00;;;;;;;;114134;1216;24894;-57
2022/10/19 06:49:01;;;;;;;;;22.00;21.00;;;;;;;;114090;1210;25383;-56
2022/10/19 06:51:30;;;;;;;;;24.00;21.00;;;;;;;;114111;1213;25309;-55
2022/10/19 06:53:57;;;;;;;;;;;;;;;;;;114080;1216;25323;-56
2022/10/19 06:56:25;;;;;;;;;25.00;21.00;;;;;;;;114072;1215;25032;-56
2022/10/19 06:58:52;;;;;;;;;;;;;;;;;;114144;1217;25315;-58
2022/10/19 07:01:20;;;;;;;;;32.50;26.00;;;;;;;;114119;1216;25053;-56
2022/10/19 07:03:49;;;;;;;;;30.00;27.00;;;;;;;;114080;1218;25233;-56
2022/10/19 07:06:17;;;;;;;;;;;;;;;;;;114132;1210;25417;-56
2022/10/19 07:08:44;;;;;;;;;31.00;25.50;;;;;;;;114116;1211;25675;-56
2022/10/19 07:11:14;;;;;;;;;38.00;31.00;;;;;;;;114089;1218;24698;-56
2022/10/19 07:13:41;;;;;;;;;40.00;28.00;;;;;;;;114153;1213;24793;-55
2022/10/19 07:16:11;;;;;;;;;26.00;23.00;;;;;;;;114095;1210;25111;-57
2022/10/19 07:18:45;;;;;;;;;;;;;;;;;;114118;1214;25530;-57
2022/10/19 07:21:14;;;;;;;;;33.00;30.00;;;;;;;;114086;1217;24818;-57
2022/10/19 07:23:43;;;;;;;;;38.00;30.00;;;;;;;;114166;1211;25262;-57
2022/10/19 07:26:14;;;;;;;;;35.50;28.50;;;;;;;;114134;1209;25053;-55
2022/10/19 07:28:43;;;;;;;;;32.00;28.50;;;;;;;;114070;1205;25609;-56
2022/10/19 07:31:11;;;;;;;;;;;;;;;;;;114155;1217;25631;-56
2022/10/19 07:33:39;;;;;;;;;29.50;27.00;;;;;;;;114130;1208;25237;-56
2022/10/19 07:36:07;;;;;;;;;;;;;;;;;;114091;1209;24935;-56
2022/10/19 07:38:34;;;;;;;;;35.50;30.50;;;;;;;;114126;1214;25448;-56
2022/10/19 07:41:08;;;;;;;;;29.00;26.00;;;;;;;;114123;1204;24717;-56
2022/10/19 07:43:35;;;;;;;;;30.00;26.00;;;;;;;;114106;1218;24704;-55
2022/10/19 07:46:04;;;;;;;;;27.50;23.50;;;;;;;;114101;1212;24773;-56
2022/10/19 07:48:33;;;;;;;;;32.00;26.00;;;;;;;;114148;1210;25129;-56
2022/10/19 07:51:00;;;;;;;;;;;;;;;;;;114113;1216;25132;-56
2022/10/19 07:53:27;;;;;;;;;;;;;;;;;;114102;1209;25601;-56
2022/10/19 07:55:54;;;;;;;;;;;;;;;;;;114109;1211;25736;-56
2022/10/19 07:58:21;;;;;;;;;40.00;31.00;;;;;;;;114133;1214;25264;-56
2022/10/19 08:00:48;;;;;;;;;33.00;29.50;;;;;;;;114121;1210;24837;-56
2022/10/19 08:03:15;;;;;;;;;;;;;;;;;;114084;1216;25503;-60
2022/10/19 08:06:05;;;;;;;;;34.00;30.00;;;;;;;;114121;1216;25157;-57
2022/10/19 08:08:32;;;;;;;;;28.00;28.00;;;;;;;;114090;1213;24977;-57
2022/10/19 08:11:09;;;;;;;;;;;;;;;;;;114100;1213;25559;-57
2022/10/19 08:13:36;;;;;;;;;;;;;;;;;;114133;1218;25552;-56
2022/10/19 08:16:04;;;;;;;;;39.00;30.50;;;;;;;;114167;1217;25383;-57
2022/10/19 08:18:31;;;;;;;;;29.50;27.00;;;;;;;;114127;1216;24785;-57
2022/10/19 08:21:03;;;;;;;;;30.00;27.00;;;;;;;;114119;1214;25462;-57
2022/10/19 08:23:30;;;;;;;;;32.00;31.00;;;;;;;;114111;1216;25238;-57
2022/10/19 08:25:58;;;;;;;;;35.50;32.50;;;;;;;;114059;1206;24969;-57
2022/10/19 08:28:25;;;;;;;;;30.00;25.00;;;;;;;;114122;1218;25659;-57
2022/10/19 08:30:56;;;;;;;;;34.50;29.00;;;;;;;;114037;1218;24777;-57
2022/10/19 08:33:24;;;;;;;;;;;;;;;;;;114104;1210;24869;-57
2022/10/19 08:35:52;;;;;;;;;23.00;22.00;;;;;;;;114114;1217;24831;-56
2022/10/19 08:38:19;;;;;;;;;;;;;;;;;;114125;1209;25200;-57
2022/10/19 08:40:46;;;;;;;;;37.00;27.00;;;;;;;;114116;1212;25590;-57
2022/10/19 08:43:35;;;;;;;;;24.00;24.00;;;;;;;;114124;1216;25662;-58
2022/10/19 08:46:17;;;;;;;;;22.00;22.00;;;;;;;;114136;1217;24894;-56
2022/10/19 08:48:45;;;;;;;;;40.50;30.50;;;;;;;;114111;1212;25653;-57
2022/10/19 08:51:12;;;;;;;;;;;;;;;;;;114166;1210;24739;-57
2022/10/19 08:53:52;;;;;;;;;35.50;31.00;;;;;;;;114138;1217;25629;-56
2022/10/19 08:56:24;;;;;;;;;34.00;31.00;;;;;;;;114131;1210;25589;-57
2022/10/19 08:59:29;;;;;;;;;;;;;;;;;;114143;1217;25152;-57
2022/10/19 09:02:00;;;;;;;;;34.00;30.00;;;;;;;;114120;1209;25168;-56
2022/10/19 09:04:36;;;;;;;;;;;;;;;;;;114157;1213;25502;-55
2022/10/19 09:07:18;;;;;;;;;30.00;26.00;;;;;;;;114191;1218;25619;-56
2022/10/19 09:10:31;;;;;;;;;37.50;31.00;;;;;;;;114123;1209;24992;-55
2022/10/19 09:13:01;;;;;;;;;30.00;26.00;;;;;;;;114103;1217;25768;-55
2022/10/19 09:15:38;;;;;;;;;30.00;27.00;;;;;;;;114141;1217;25303;-55
2022/10/19 09:18:18;;;;;;;;;;;;;;;;;;114152;1213;25705;-55
2022/10/19 09:20:48;;;;;;;;;32.00;26.50;;;;;;;;114186;1218;24952;-55
2022/10/19 09:23:57;;;;;;;;;27.50;26.50;;;;;;;;114150;1209;24853;-56
2022/10/19 09:26:30;;;;;;;;;35.00;28.00;;;;;;;;114076;1213;25677;-55
2022/10/19 09:28:58;;;;;;;;;;;;;;;;;;114093;1212;25291;-55
2022/10/19 09:31:37;;;;;;;;;35.00;28.00;;;;;;;;114101;1217;25385;-58
2022/10/19 09:34:20;;;;;;;;;31.00;28.00;;;;;;;;114067;1216;25152;-56
2022/10/19 09:36:50;;;;;;;;;;;;;;;;;;114159;1209;24963;-57
2022/10/19 09:39:17;;;;;;;;;;;;;;;;;;114152;1210;25617;-56
2022/10/19 09:41:56;;;;;;;;;34.00;25.50;;;;;;;;114118;1217;25641;-56
2022/10/19 09:44:24;;;;;;;;;32.00;27.00;;;;;;;;114143;1215;26696;-56
2022/10/19 09:47:24;;;;;;;;;23.00;20.00;;;;;;;;114136;1213;24954;-56
2022/10/19 09:49:51;;;;;;;;;;;;;;;;;;114140;1216;24822;-56
2022/10/19 09:52:31;;;;;;;;;34.00;31.00;;;;;;;;114136;1212;25206;-56
2022/10/19 09:55:24;;;;;;;;;32.00;27.00;;;;;;;;114080;1216;25698;-56
2022/10/19 09:57:59;;;;;;;;;30.50;26.50;;;;;;;;114166;1209;25503;-55
2022/10/19 10:00:38;;;;;;;;;27.50;23.00;;;;;;;;114146;1207;25344;-55
2022/10/19 10:03:06;;;;;;;;;32.00;29.00;;;;;;;;114138;1216;25082;-56
2022/10/19 10:05:37;;;;;;;;;33.50;28.00;;;;;;;;114117;1205;24987;-56
2022/10/19 10:08:11;;;;;;;;;;;;;;;;;;114191;1216;24866;-56
2022/10/19 10:10:42;;;;;;;;;32.00;25.00;;;;;;;;114167;1213;25013;-56
2022/10/19 10:13:17;;;;;;;;;38.00;30.00;;;;;;;;114096;1213;25248;-56
2022/10/19 10:15:48;;;;;;;;;31.00;26.00;;;;;;;;114117;1218;24732;-55
2022/10/19 10:18:16;;;;;;;;;28.00;26.50;;;;;;;;114096;1210;24873;-56
2022/10/19 10:20:59;;;;;;;;;27.00;23.00;;;;;;;;114144;1218;25527;-55
2022/10/19 10:23:30;;;;;;;;;31.00;30.00;;;;;;;;114145;1214;24836;-56
2022/10/19 10:25:57;;;;;;;;;;;;;;;;;;114131;1216;24698;-55
2022/10/19 10:28:27;;;;;;;;;26.00;23.00;;;;;;;;114140;1209;25615;-55
2022/10/19 10:31:00;;;;;;;;;;;;;;;;;;114138;1206;25493;-56
2022/10/19 10:33:28;;;;;;;;;25.00;23.00;;;;;;;;114149;1217;25507;-56
2022/10/19 10:36:12;;;;;;;;;28.00;24.00;;;;;;;;114107;1217;26284;-56
2022/10/19 10:38:40;;;;;;;;;31.00;25.00;;;;;;;;114155;1213;25581;-55
2022/10/19 10:41:16;;;;;;;;;23.50;19.50;;;;;;;;114177;1211;24693;-56
2022/10/19 10:44:01;;;;;;;;;25.00;23.00;;;;;;;;114143;1209;25536;-56
2022/10/19 10:46:38;;;;;;;;;24.50;22.50;;;;;;;;114155;1207;25289;-56
2022/10/19 10:49:07;;;;;;;;;27.00;26.00;;;;;;;;114141;1209;25047;-56
2022/10/19 10:51:40;;;;;;;;;28.00;23.00;;;;;;;;114188;1210;25979;-56
2022/10/19 10:54:25;;;;;;;;;33.00;27.00;;;;;;;;114156;1212;25271;-55
2022/10/19 10:57:15;;;;;;;;;25.00;21.00;;;;;;;;114193;1211;25733;-56
2022/10/19 11:00:00;;;;;;;;;;;;;;;;;;114144;1209;25315;-56
2022/10/19 11:02:28;;;;;;;;;23.00;22.00;;;;;;;;114147;1212;24813;-56
2022/10/19 11:05:10;;;;;;;;;27.00;21.00;;;;;;;;114102;1213;24971;-56
2022/10/19 11:07:42;;;;;;;;;26.50;22.50;;;;;;;;114162;1212;25298;-56
2022/10/19 11:10:34;;;;;;;;;32.00;28.50;;;;;;;;114117;1216;24725;-56
2022/10/19 11:13:29;;;;;;;;;28.50;24.50;;;;;;;;114069;1209;26047;-55
2022/10/19 11:15:58;;;;;;;;;23.00;18.00;;;;;;;;114174;1213;25339;-56
2022/10/19 11:18:33;;;;;;;;;27.00;22.00;;;;;;;;114107;1213;25815;-56
2022/10/19 11:21:03;;;;;;;;;;;;;;;;;;114145;1209;25725;-56
2022/10/19 11:23:36;;;;;;;;;25.50;23.50;;;;;;;;114062;1216;25507;-56
2022/10/19 11:26:34;;;;;;;;;24.00;22.00;;;;;;;;114144;1210;25610;-56
2022/10/19 11:29:38;;;;;;;;;26.00;23.50;;;;;;;;114068;1215;24937;-56
2022/10/19 11:32:19;;;;;;;;;26.00;21.00;;;;;;;;114134;1216;25706;-55
2022/10/19 11:35:08;;;;;;;;;;;;;;;;;;114104;1215;25720;-56
2022/10/19 11:37:51;;;;;;;;;28.00;23.00;;;;;;;;114126;1216;25002;-56
2022/10/19 11:41:10;;;;;;;;;24.00;23.00;;;;;;;;114114;1218;25521;-56
2022/10/19 11:43:54;;;;;;;;;21.00;20.00;;;;;;;;114117;1205;25414;-57
2022/10/19 11:46:46;;;;;;;;;22.00;19.00;;;;;;;;114170;1216;24715;-56
2022/10/19 11:49:22;;;;;;;;;20.50;18.00;;;;;;;;114135;1213;25466;-55
2022/10/19 11:51:58;;;;;;;;;24.00;23.00;;;;;;;;114206;1210;24885;-54
2022/10/19 11:54:57;;;;;;;;;20.00;20.00;;;;;;;;114095;1207;25366;-55
2022/10/19 11:57:30;;;;;;;;;15.00;15.00;;;;;;;;114149;1210;25530;-56
2022/10/19 12:00:08;;;;;;;;;21.50;20.50;;;;;;;;114170;1209;25433;-55
2022/10/19 12:02:56;;;;;;;;;21.00;14.00;;;;;;;;114133;1216;24825;-56
2022/10/19 12:05:48;;;;;;;;;24.00;19.00;;;;;;;;114147;1210;25596;-56
2022/10/19 12:08:42;;;;;;;;;20.00;18.00;;;;;;;;114155;1216;25291;-55
2022/10/19 12:11:33;;;;;;;;;20.00;14.00;;;;;;;;114127;1203;25267;-56
2022/10/19 12:14:03;;;;;;;;;21.00;19.50;;;;;;;;114133;1214;24878;-56
2022/10/19 12:16:49;;;;;;;;;;;;;;;;;;114158;1209;25574;-57
2022/10/19 12:19:17;;;;;;;;;;;;;;;;;;114145;1210;25303;-56
2022/10/19 12:21:45;;;;;;;;;11.00;10.00;;;;;;;;114118;1213;25675;-57
2022/10/19 12:24:16;;;;;;;;;19.00;16.00;;;;;;;;114175;1218;25521;-56
2022/10/19 12:26:44;;;;;;;;;23.00;20.00;;;;;;;;114158;1212;25034;-57
2022/10/19 12:29:20;;;;;;;;;20.50;20.00;;;;;;;;114178;1213;24942;-57
2022/10/19 12:31:50;;;;;;;;;24.00;22.00;;;;;;;;114097;1209;24717;-57
2022/10/19 12:34:26;;;;;;;;;25.00;20.50;;;;;;;;114023;1209;25096;-56
2022/10/19 12:37:03;;;;;;;;;16.50;14.50;;;;;;;;114085;1218;24858;-57
2022/10/19 12:39:50;;;;;;;;;21.50;16.50;;;;;;;;114102;1218;24943;-58
2022/10/19 12:42:21;;;;;;;;;18.00;17.00;;;;;;;;114141;1210;24727;-58
2022/10/19 12:45:18;;;;;;;;;23.00;20.00;;;;;;;;114080;1211;24750;-58
2022/10/19 12:48:07;;;;;;;;;22.00;17.50;;;;;;;;114072;1217;24968;-57
2022/10/19 12:50:52;;;;;;;;;18.00;15.00;;;;;;;;114135;1213;24764;-57
2022/10/19 12:53:34;;;;;;;;;23.00;17.00;;;;;;;;114147;1216;24751;-57
2022/10/19 12:56:06;;;;;;;;;17.00;16.00;;;;;;;;114107;1210;25541;-57
2022/10/19 12:58:35;;;;;;;;;;;;;;;;;;114120;1214;25757;-57
2022/10/19 13:01:04;;;;;;;;;18.00;13.00;;;;;;;;114162;1215;25515;-57
2022/10/19 13:03:41;;;;;;;;;;;;;;;;;;114143;1217;25182;-57
2022/10/19 13:06:11;;;;;;;;;21.00;18.00;;;;;;;;114077;1213;25596;-58
2022/10/19 13:08:40;;;;;;;;;;;;;;;;;;114089;1213;24760;-56
2022/10/19 13:11:16;;;;;;;;;24.00;21.00;;;;;;;;114137;1215;25438;-57
2022/10/19 13:14:03;;;;;;;;;17.00;15.50;;;;;;;;114055;1206;25761;-57
